createdAt,value
2022-08-14T00:02:16.940Z,67.14
2022-08-14T00:04:45.467Z,67.35
2022-08-14T00:07:14.865Z,67.21
2022-08-14T00:10:01.626Z,66.30
2022-08-14T00:12:48.280Z,66.64
2022-08-14T00:15:29.879Z,66.90
2022-08-14T00:18:09.074Z,67.40
2022-08-14T00:20:44.563Z,67.87
2022-08-14T00:23:18.225Z,68.06
2022-08-14T00:25:53.727Z,68.26
2022-08-14T00:28:36.786Z,67.89
2022-08-14T00:31:08.092Z,68.13
2022-08-14T00:33:49.210Z,68.20
2022-08-14T00:36:36.688Z,68.47
2022-08-14T00:39:15.115Z,68.33
2022-08-14T00:41:46.395Z,68.05
2022-08-14T00:44:26.686Z,67.73
2022-08-14T00:47:02.371Z,67.77
2022-08-14T00:49:42.706Z,68.02
2022-08-14T00:52:13.884Z,68.03
2022-08-14T00:54:43.760Z,68.24
2022-08-14T00:57:14.165Z,68.22
2022-08-14T00:59:44.142Z,67.54
2022-08-14T01:02:13.734Z,66.93
2022-08-14T01:04:53.910Z,66.78
2022-08-14T01:07:24.860Z,66.97
2022-08-14T01:10:01.648Z,67.24
2022-08-14T01:12:30.773Z,67.44
2022-08-14T01:15:03.032Z,67.85
2022-08-14T01:17:49.535Z,67.85
2022-08-14T01:20:40.110Z,68.37
2022-08-14T01:23:16.190Z,68.85
2022-08-14T01:25:48.728Z,69.23
2022-08-14T01:28:34.106Z,69.33
2022-08-14T01:31:12.297Z,69.71
2022-08-14T01:33:59.691Z,70.08
2022-08-14T01:36:37.079Z,70.43
2022-08-14T01:39:13.333Z,70.62
2022-08-14T01:41:44.370Z,70.80
2022-08-14T01:44:31.248Z,71.02
2022-08-14T01:47:12.166Z,70.91
2022-08-14T01:50:01.223Z,70.88
2022-08-14T01:52:59.054Z,70.69
2022-08-14T01:55:32.303Z,71.20
2022-08-14T01:58:20.209Z,70.99
2022-08-14T02:00:54.783Z,70.53
2022-08-14T02:03:29.602Z,70.58
2022-08-14T02:06:03.482Z,71.15
2022-08-14T02:08:37.671Z,71.25
2022-08-14T02:11:25.494Z,70.79
2022-08-14T02:14:00.113Z,70.22
2022-08-14T02:16:39.511Z,70.33
2022-08-14T02:19:12.402Z,70.80
2022-08-14T02:21:43.623Z,71.49
2022-08-14T02:24:39.908Z,71.29
2022-08-14T02:28:25.728Z,71.50
2022-08-14T02:30:00.636Z,71.64
2022-08-14T02:32:36.981Z,71.85
2022-08-14T02:35:17.922Z,72.26
2022-08-14T02:37:47.908Z,72.33
2022-08-14T02:40:18.517Z,72.22
2022-08-14T02:42:54.876Z,72.20
2022-08-14T02:45:37.841Z,72.13
2022-08-14T02:49:04.066Z,71.87
2022-08-14T02:51:00.572Z,72.21
2022-08-14T02:53:29.803Z,72.41
2022-08-14T02:56:03.321Z,72.10
2022-08-14T02:58:55.568Z,71.84
2022-08-14T03:01:31.350Z,71.99
2022-08-14T03:04:17.634Z,72.35
2022-08-14T03:06:57.037Z,72.36
2022-08-14T03:10:26.730Z,72.71
2022-08-14T03:12:17.932Z,72.42
2022-08-14T03:15:14.230Z,72.33
2022-08-14T03:17:58.297Z,72.80
2022-08-14T03:20:29.052Z,73.22
2022-08-14T03:22:59.419Z,73.03
2022-08-14T03:25:34.375Z,73.00
2022-08-14T03:28:14.947Z,72.87
2022-08-14T03:30:59.737Z,72.78
2022-08-14T03:33:37.728Z,72.66
2022-08-14T03:37:39.185Z,72.76
2022-08-14T03:39:14.270Z,72.57
2022-08-14T03:41:50.474Z,72.04
2022-08-14T03:45:20.111Z,72.35
2022-08-14T03:47:09.301Z,72.64
2022-08-14T03:49:42.263Z,72.29
2022-08-14T03:52:37.669Z,72.35
2022-08-14T03:55:01.083Z,72.64
2022-08-14T03:57:32.262Z,72.98
2022-08-14T04:00:03.028Z,72.61
2022-08-14T04:02:37.454Z,72.83
2022-08-14T04:05:16.803Z,73.17
2022-08-14T04:08:00.174Z,72.64
2022-08-14T04:10:34.964Z,72.49
2022-08-14T04:13:06.032Z,72.26
2022-08-14T04:15:55.881Z,71.81
2022-08-14T04:18:24.268Z,71.62
2022-08-14T04:20:55.259Z,71.99
2022-08-14T04:23:29.419Z,72.44
2022-08-14T04:26:03.200Z,71.98
2022-08-14T04:29:09.145Z,72.12
2022-08-14T04:32:56.582Z,72.08
2022-08-14T04:34:20.759Z,71.69
2022-08-14T04:37:10.675Z,71.20
2022-08-14T04:39:56.737Z,70.92
2022-08-14T04:42:47.365Z,70.49
2022-08-14T04:45:21.703Z,69.87
2022-08-14T04:48:10.120Z,69.57
2022-08-14T04:50:44.812Z,68.88
2022-08-14T04:53:17.159Z,68.95
2022-08-14T04:55:53.112Z,67.78
2022-08-14T04:58:32.950Z,66.92
2022-08-14T05:01:06.166Z,67.06
2022-08-14T05:03:41.743Z,66.57
2022-08-14T05:06:37.848Z,65.52
2022-08-14T05:09:02.046Z,64.48
2022-08-14T05:11:33.466Z,64.28
2022-08-14T05:14:34.127Z,64.47
2022-08-14T05:16:53.874Z,64.45
2022-08-14T05:19:29.249Z,64.89
2022-08-14T05:22:16.737Z,64.78
2022-08-14T05:24:50.617Z,65.45
2022-08-14T05:27:23.092Z,65.84
2022-08-14T05:29:56.873Z,65.65
2022-08-14T05:32:27.513Z,65.31
2022-08-14T05:34:57.952Z,65.13
2022-08-14T05:37:30.754Z,64.35
2022-08-14T05:40:01.078Z,64.20
2022-08-14T05:42:34.018Z,64.01
2022-08-14T05:45:05.184Z,63.85
2022-08-14T05:47:42.992Z,64.33
2022-08-14T05:50:17.342Z,63.18
2022-08-14T05:52:51.309Z,62.72
2022-08-14T05:55:23.269Z,61.85
2022-08-14T05:57:57.780Z,60.93
2022-08-14T06:00:38.695Z,61.05
2022-08-14T06:03:17.086Z,61.08
2022-08-14T06:05:47.216Z,60.89
2022-08-14T06:08:36.271Z,60.53
2022-08-14T06:11:20.074Z,59.95
2022-08-14T06:13:48.895Z,59.38
2022-08-14T06:16:20.234Z,59.55
2022-08-14T06:18:52.502Z,59.15
2022-08-14T06:21:22.658Z,59.07
2022-08-14T06:23:52.648Z,58.49
2022-08-14T06:26:22.421Z,58.35
2022-08-14T06:28:52.191Z,57.81
2022-08-14T06:31:21.347Z,57.49
2022-08-14T06:35:11.452Z,57.32
2022-08-14T06:36:39.528Z,57.20
2022-08-14T06:39:10.478Z,56.75
2022-08-14T06:41:57.930Z,57.13
2022-08-14T06:44:30.848Z,56.84
2022-08-14T06:47:02.614Z,56.60
2022-08-14T06:49:30.990Z,56.58
2022-08-14T06:52:08.792Z,56.05
2022-08-14T06:54:38.595Z,56.18
2022-08-14T06:57:07.885Z,55.62
2022-08-14T06:59:43.221Z,55.50
2022-08-14T07:02:29.428Z,55.59
2022-08-14T07:05:20.779Z,55.99
2022-08-14T07:07:49.338Z,56.05
2022-08-14T07:10:22.281Z,55.91
2022-08-14T07:13:01.367Z,55.69
2022-08-14T07:15:34.011Z,56.32
2022-08-14T07:18:03.754Z,56.22
2022-08-14T07:20:36.844Z,56.19
2022-08-14T07:23:10.987Z,56.23
2022-08-14T07:25:43.715Z,56.66
2022-08-14T07:28:20.428Z,56.20
2022-08-14T07:30:50.962Z,56.54
2022-08-14T07:33:24.509Z,55.99
2022-08-14T07:36:00.751Z,55.99
2022-08-14T07:38:35.855Z,55.84
2022-08-14T07:41:14.826Z,56.08
2022-08-14T07:43:55.180Z,55.13
2022-08-14T07:46:28.240Z,55.07
2022-08-14T07:48:58.010Z,55.08
2022-08-14T07:51:34.148Z,54.81
2022-08-14T07:54:11.041Z,54.58
2022-08-14T07:56:48.022Z,54.50
2022-08-14T07:59:18.089Z,54.17
2022-08-14T08:01:48.194Z,54.26
2022-08-14T08:04:27.188Z,53.31
2022-08-14T08:06:56.693Z,53.16
2022-08-14T08:09:32.547Z,53.33
2022-08-14T08:12:09.306Z,53.08
2022-08-14T08:14:56.470Z,52.82
2022-08-14T08:17:34.867Z,53.02
2022-08-14T08:20:11.648Z,52.12
2022-08-14T08:22:40.870Z,52.34
2022-08-14T08:25:13.513Z,51.98
2022-08-14T08:27:44.968Z,52.05
2022-08-14T08:30:14.980Z,52.28
2022-08-14T08:32:45.949Z,51.54
2022-08-14T08:35:21.060Z,51.50
2022-08-14T08:38:01.282Z,50.75
2022-08-14T08:40:42.339Z,50.55
2022-08-14T08:43:22.056Z,50.78
2022-08-14T08:45:57.434Z,50.86
2022-08-14T08:48:31.839Z,51.09
2022-08-14T08:51:06.316Z,49.88
2022-08-14T08:53:36.503Z,49.95
2022-08-14T08:56:05.523Z,49.46
2022-08-14T08:58:39.193Z,49.19
2022-08-14T09:01:07.530Z,49.28
2022-08-14T09:03:40.777Z,49.01
2022-08-14T09:07:01.147Z,49.02
2022-08-14T09:09:00.560Z,48.64
2022-08-14T09:11:29.463Z,48.55
2022-08-14T09:14:00.474Z,48.41
2022-08-14T09:16:28.517Z,48.45
2022-08-14T09:18:56.932Z,48.39
2022-08-14T09:21:31.188Z,48.57
2022-08-14T09:24:28.705Z,47.72
2022-08-14T09:26:50.003Z,47.95
2022-08-14T09:29:23.501Z,48.12
2022-08-14T09:31:58.116Z,48.05
2022-08-14T09:34:58.950Z,48.33
2022-08-14T09:37:43.934Z,47.97
2022-08-14T09:40:29.415Z,47.15
2022-08-14T09:43:19.963Z,47.30
2022-08-14T09:45:53.897Z,46.86
2022-08-14T09:48:29.988Z,46.91
2022-08-14T09:54:18.850Z,46.26
2022-08-14T09:56:31.737Z,45.72
2022-08-14T09:59:15.072Z,46.19
2022-08-14T10:01:52.644Z,46.22
2022-08-14T10:04:32.833Z,46.25
2022-08-14T10:07:05.099Z,45.91
2022-08-14T10:09:35.250Z,45.48
2022-08-14T10:12:06.829Z,45.62
2022-08-14T10:14:53.347Z,45.15
2022-08-14T10:17:27.511Z,44.66
2022-08-14T10:19:58.179Z,44.95
2022-08-14T10:23:13.513Z,44.80
2022-08-14T10:25:19.848Z,44.39
2022-08-14T10:27:59.259Z,43.74
2022-08-14T10:30:37.693Z,43.37
2022-08-14T10:33:07.330Z,42.75
2022-08-14T10:35:48.013Z,42.71
2022-08-14T10:38:27.776Z,42.83
2022-08-14T10:40:59.470Z,42.64
2022-08-14T10:43:31.720Z,42.70
2022-08-14T10:46:21.764Z,42.29
2022-08-14T10:49:04.224Z,41.44
2022-08-14T10:51:39.735Z,40.99
2022-08-14T10:54:26.317Z,41.36
2022-08-14T10:57:13.673Z,41.12
2022-08-14T10:59:53.041Z,41.19
2022-08-14T11:02:53.984Z,41.14
2022-08-14T11:05:27.048Z,40.67
2022-08-14T11:08:00.751Z,40.23
2022-08-14T11:10:46.816Z,40.62
2022-08-14T11:13:21.226Z,40.43
2022-08-14T11:15:53.524Z,40.72
2022-08-14T11:18:30.332Z,40.86
2022-08-14T11:21:08.106Z,40.48
2022-08-14T11:23:41.234Z,39.59
2022-08-14T11:26:16.690Z,38.93
2022-08-14T11:28:49.770Z,38.85
2022-08-14T11:31:23.456Z,38.64
2022-08-14T11:33:57.882Z,37.88
2022-08-14T11:36:56.919Z,37.14
2022-08-14T11:39:23.125Z,36.51
2022-08-14T11:42:55.326Z,36.08
2022-08-14T11:45:00.214Z,36.20
2022-08-14T11:47:34.729Z,35.91
2022-08-14T11:50:15.017Z,36.03
2022-08-14T11:53:04.506Z,36.15
2022-08-14T11:55:38.431Z,35.99
2022-08-14T11:58:10.986Z,35.89
2022-08-14T12:00:49.455Z,35.48
2022-08-14T12:03:27.068Z,35.42
2022-08-14T12:06:28.042Z,35.10
2022-08-14T12:08:59.937Z,35.60
2022-08-14T12:11:43.193Z,35.74
2022-08-14T12:14:30.091Z,35.41
2022-08-14T12:17:12.015Z,36.05
2022-08-14T12:19:53.731Z,36.13
2022-08-14T12:22:36.101Z,35.57
2022-08-14T12:25:11.506Z,35.64
2022-08-14T12:27:52.967Z,35.38
2022-08-14T12:30:41.745Z,35.26
2022-08-14T12:33:27.121Z,35.18
2022-08-14T12:36:04.388Z,35.28
2022-08-14T12:38:38.077Z,35.41
2022-08-14T12:41:20.443Z,34.88
2022-08-14T12:43:53.449Z,34.46
2022-08-14T12:46:28.828Z,33.76
2022-08-14T12:48:59.968Z,33.95
2022-08-14T12:51:31.129Z,33.11
2022-08-14T12:54:01.127Z,32.68
2022-08-14T12:56:33.816Z,32.36
2022-08-14T12:59:03.433Z,32.55
2022-08-14T13:01:59.278Z,32.39
2022-08-14T13:04:22.758Z,31.84
2022-08-14T13:06:52.723Z,31.45
2022-08-14T13:09:27.839Z,31.25
2022-08-14T13:12:32.122Z,31.69
2022-08-14T13:14:59.801Z,32.03
2022-08-14T13:17:29.538Z,32.44
2022-08-14T13:20:10.415Z,32.24
2022-08-14T13:22:42.807Z,32.00
2022-08-14T13:25:15.671Z,32.00
2022-08-14T13:27:54.538Z,32.12
2022-08-14T13:30:25.957Z,32.36
2022-08-14T13:32:57.714Z,32.96
2022-08-14T13:35:27.185Z,33.36
2022-08-14T13:37:56.041Z,33.81
2022-08-14T13:40:26.618Z,33.43
2022-08-14T13:42:57.851Z,34.64
2022-08-14T13:45:33.851Z,35.57
2022-08-14T13:48:27.404Z,36.00
2022-08-14T13:51:07.934Z,36.05
2022-08-14T13:54:06.921Z,34.71
2022-08-14T13:56:40.951Z,33.67
2022-08-14T13:59:11.937Z,34.06
2022-08-14T14:01:51.712Z,33.98
2022-08-14T14:04:20.371Z,33.41
2022-08-14T14:06:52.230Z,33.28
2022-08-14T14:09:32.738Z,33.09
2022-08-14T14:12:37.582Z,33.24
2022-08-14T14:15:10.652Z,33.86
2022-08-14T14:17:40.600Z,34.25
2022-08-14T14:20:34.906Z,35.07
2022-08-14T14:23:11.643Z,35.16
2022-08-14T14:25:49.352Z,34.61
2022-08-14T14:28:32.157Z,34.20
2022-08-14T14:31:05.945Z,34.39
2022-08-14T14:33:52.358Z,34.34
2022-08-14T14:36:29.091Z,34.45
2022-08-14T14:39:01.128Z,34.32
2022-08-14T14:41:38.513Z,34.10
2022-08-14T14:44:15.941Z,33.45
2022-08-14T14:46:50.777Z,33.69
2022-08-14T14:49:22.193Z,33.15
2022-08-14T14:52:00.488Z,33.45
2022-08-14T14:54:31.493Z,33.96
2022-08-14T14:57:02.385Z,34.12
2022-08-14T14:59:33.386Z,34.71
2022-08-14T15:02:08.041Z,34.91
2022-08-14T15:04:38.311Z,34.25
2022-08-14T15:07:07.712Z,33.97
2022-08-14T15:09:36.256Z,33.86
2022-08-14T15:12:34.154Z,33.76
2022-08-14T15:14:54.643Z,34.51
2022-08-14T15:17:35.195Z,34.57
2022-08-14T15:20:17.619Z,34.88
2022-08-14T15:23:00.662Z,34.71
2022-08-14T15:25:31.897Z,34.87
2022-08-14T15:28:00.807Z,34.79
2022-08-14T15:30:32.259Z,34.64
2022-08-14T15:33:02.235Z,33.83
2022-08-14T15:35:34.128Z,33.83
2022-08-14T15:38:08.721Z,33.50
2022-08-14T15:40:41.088Z,33.62
2022-08-14T15:43:12.789Z,34.32
2022-08-14T15:45:42.509Z,34.30
2022-08-14T15:48:18.421Z,34.10
2022-08-14T15:50:50.925Z,34.49
2022-08-14T15:53:22.434Z,34.61
2022-08-14T15:55:53.017Z,34.81
2022-08-14T15:58:21.690Z,34.93
2022-08-14T16:01:07.475Z,35.63
2022-08-14T16:03:39.890Z,35.53
2022-08-14T16:06:15.519Z,35.23
2022-08-14T16:08:50.443Z,35.48
2022-08-14T16:11:26.880Z,35.82
2022-08-14T16:13:57.530Z,35.90
2022-08-14T16:16:48.143Z,35.91
2022-08-14T16:19:23.674Z,36.47
2022-08-14T16:22:01.240Z,36.05
2022-08-14T16:25:00.495Z,36.42
2022-08-14T16:27:37.845Z,36.71
2022-08-14T16:30:12.241Z,36.51
2022-08-14T16:32:54.870Z,36.63
2022-08-14T16:35:42.720Z,37.02
2022-08-14T16:41:26.400Z,37.44
2022-08-14T16:44:02.359Z,37.28
2022-08-14T16:46:44.531Z,37.19
2022-08-14T16:49:17.405Z,36.95
2022-08-14T16:51:52.682Z,37.24
2022-08-14T16:54:35.180Z,37.12
2022-08-14T16:57:18.412Z,37.16
2022-08-14T16:59:52.294Z,37.65
2022-08-14T17:02:37.128Z,37.51
2022-08-14T17:05:21.720Z,37.50
2022-08-14T17:08:33.330Z,37.94
2022-08-14T17:11:11.187Z,38.10
2022-08-14T17:13:58.754Z,37.98
2022-08-14T17:16:35.851Z,38.00
2022-08-14T17:19:09.910Z,38.33
2022-08-14T17:21:47.078Z,38.64
2022-08-14T17:24:56.374Z,38.91
2022-08-14T17:27:09.175Z,39.21
2022-08-14T17:29:44.987Z,39.51
2022-08-14T17:32:29.329Z,39.69
2022-08-14T17:35:16.884Z,39.94
2022-08-14T17:37:55.555Z,40.43
2022-08-14T17:40:31.352Z,40.62
2022-08-14T17:43:01.950Z,40.47
2022-08-14T17:45:47.122Z,40.48
2022-08-14T17:49:09.952Z,40.77
2022-08-14T17:51:30.225Z,41.30
2022-08-14T17:54:03.032Z,41.23
2022-08-14T17:56:34.182Z,41.63
2022-08-14T17:59:07.362Z,41.88
2022-08-14T18:01:46.346Z,42.17
2022-08-14T18:04:28.238Z,42.35
2022-08-14T18:07:08.996Z,42.70
2022-08-14T18:09:57.011Z,42.73
2022-08-14T18:12:37.187Z,42.86
2022-08-14T18:15:16.488Z,43.06
2022-08-14T18:17:52.766Z,43.11
2022-08-14T18:21:24.460Z,42.94
2022-08-14T18:23:14.532Z,43.25
2022-08-14T18:25:51.666Z,43.40
2022-08-14T18:28:51.871Z,43.85
2022-08-14T18:31:42.157Z,44.12
2022-08-14T18:34:30.906Z,44.20
2022-08-14T18:37:09.666Z,44.22
2022-08-14T18:40:01.493Z,44.41
2022-08-14T18:42:45.488Z,44.57
2022-08-14T18:45:18.715Z,44.89
2022-08-14T18:48:14.249Z,44.97
2022-08-14T18:50:53.117Z,45.18
2022-08-14T18:53:25.042Z,45.00
2022-08-14T18:56:01.887Z,45.27
2022-08-14T18:58:46.522Z,45.17
2022-08-14T19:01:25.845Z,45.32
2022-08-14T19:03:58.143Z,45.63
2022-08-14T19:06:41.156Z,45.50
2022-08-14T19:09:09.552Z,45.83
2022-08-14T19:11:50.514Z,45.88
2022-08-14T19:14:48.314Z,46.05
2022-08-14T19:18:14.791Z,46.21
2022-08-14T19:20:49.016Z,46.13
2022-08-14T19:23:40.636Z,46.31
2022-08-14T19:26:35.543Z,46.53
2022-08-14T19:29:36.271Z,46.65
2022-08-14T19:32:39.454Z,46.76
2022-08-14T19:35:55.390Z,46.81
2022-08-14T19:38:59.508Z,46.97
2022-08-14T19:41:33.975Z,47.03
2022-08-14T19:44:19.515Z,47.01
2022-08-14T19:47:01.825Z,47.30
2022-08-14T19:50:08.189Z,47.38
2022-08-14T19:52:29.834Z,47.60
2022-08-14T19:54:59.164Z,47.65
2022-08-14T19:57:29.570Z,48.03
2022-08-14T20:00:04.698Z,47.83
2022-08-14T20:02:37.602Z,48.08
2022-08-14T20:05:11.339Z,47.89
2022-08-14T20:07:59.545Z,48.09
2022-08-14T20:11:03.675Z,48.07
2022-08-14T20:13:29.319Z,48.13
2022-08-14T20:16:12.139Z,48.26
2022-08-14T20:18:51.640Z,48.28
2022-08-14T20:21:24.779Z,47.85
2022-08-14T20:24:30.729Z,47.80
2022-08-14T20:27:34.159Z,47.97
2022-08-14T20:30:34.930Z,47.83
2022-08-14T20:33:10.952Z,47.67
2022-08-14T20:35:47.692Z,47.76
2022-08-14T20:38:29.398Z,47.83
2022-08-14T20:41:05.888Z,47.99
2022-08-14T20:43:55.438Z,48.22
2022-08-14T20:46:30.045Z,48.08
2022-08-14T20:49:02.461Z,48.41
2022-08-14T20:51:38.897Z,48.48
2022-08-14T20:54:34.564Z,48.34
2022-08-14T20:57:11.905Z,48.61
2022-08-14T20:59:45.448Z,48.70
2022-08-14T21:02:38.662Z,49.11
2022-08-14T21:05:33.262Z,48.98
2022-08-14T21:08:09.561Z,49.17
2022-08-14T21:10:53.077Z,49.68
2022-08-14T21:14:08.987Z,50.15
2022-08-14T21:16:34.328Z,50.30
2022-08-14T21:19:04.183Z,50.67
2022-08-14T21:21:40.687Z,50.47
2022-08-14T21:24:38.580Z,50.67
2022-08-14T21:27:13.011Z,50.91
2022-08-14T21:29:56.125Z,50.94
2022-08-14T21:32:47.078Z,50.92
2022-08-14T21:35:22.843Z,50.73
2022-08-14T21:37:52.586Z,50.71
2022-08-14T21:40:42.303Z,50.97
2022-08-14T21:43:19.441Z,51.34
2022-08-14T21:45:51.713Z,51.26
2022-08-14T21:48:25.307Z,51.38
2022-08-14T21:51:02.101Z,51.26
2022-08-14T21:53:59.210Z,51.32
2022-08-14T21:56:38.617Z,51.21
2022-08-14T21:59:11.559Z,51.54
2022-08-14T22:02:00.904Z,51.33
2022-08-14T22:04:40.538Z,51.80
2022-08-14T22:07:16.933Z,51.79
2022-08-14T22:09:54.865Z,51.80
2022-08-14T22:12:45.496Z,51.83
2022-08-14T22:15:18.201Z,51.98
2022-08-14T22:17:50.955Z,52.01
2022-08-14T22:20:22.826Z,52.31
2022-08-14T22:22:55.965Z,52.38
2022-08-14T22:25:33.424Z,52.68
2022-08-14T22:28:04.399Z,52.68
2022-08-14T22:30:33.409Z,52.55
2022-08-14T22:33:02.390Z,52.76
2022-08-14T22:35:31.147Z,53.09
2022-08-14T22:38:01.918Z,53.01
2022-08-14T22:41:07.182Z,53.36
2022-08-14T22:43:39.600Z,53.63
2022-08-14T22:46:14.868Z,53.90
2022-08-14T22:48:46.575Z,53.82
2022-08-14T22:51:17.688Z,54.22
2022-08-14T22:53:52.227Z,53.89
2022-08-14T22:56:30.194Z,54.15
2022-08-14T22:59:01.189Z,54.13
2022-08-14T23:01:55.217Z,54.38
2022-08-14T23:04:35.332Z,54.46
2022-08-14T23:07:22.448Z,54.35
2022-08-14T23:09:56.974Z,54.50
2022-08-14T23:12:31.476Z,55.07
2022-08-14T23:15:01.005Z,55.11
2022-08-14T23:17:38.791Z,55.12
2022-08-14T23:20:19.332Z,55.05
2022-08-14T23:22:52.478Z,55.43
2022-08-14T23:25:57.511Z,55.34
2022-08-14T23:28:33.940Z,55.80
2022-08-14T23:31:15.743Z,55.22
2022-08-14T23:34:06.740Z,55.26
2022-08-14T23:36:37.382Z,55.96
2022-08-14T23:39:24.653Z,56.16
2022-08-14T23:42:04.190Z,56.32
2022-08-14T23:44:36.817Z,56.75
2022-08-14T23:47:11.766Z,56.12
2022-08-14T23:50:03.671Z,56.26
2022-08-14T23:52:56.087Z,56.11
2022-08-14T23:55:32.249Z,56.20
2022-08-14T23:58:01.929Z,56.44
